sensor_id;sensor_type;location;lat;lon;timestamp;pressure;altitude;pressure_sealevel;temperature;humidity
42887;BME280;29032;56.028;92.904;2023-04-21T00:03:08;100543.94;;;2.44;48.88
42887;BME280;29032;56.028;92.904;2023-04-21T00:08:29;100556.13;;;2.55;48.31
42887;BME280;29032;56.028;92.904;2023-04-21T00:13:32;100551.31;;;2.60;48.38
42887;BME280;29032;56.028;92.904;2023-04-21T00:18:34;100542.66;;;2.61;48.80
42887;BME280;29032;56.028;92.904;2023-04-21T00:23:56;100550.53;;;2.72;48.57
42887;BME280;29032;56.028;92.904;2023-04-21T00:34:18;100547.91;;;2.68;48.18
42887;BME280;29032;56.028;92.904;2023-04-21T00:39:21;100553.28;;;2.72;47.87
42887;BME280;29032;56.028;92.904;2023-04-21T00:44:23;100556.69;;;2.63;48.48
42887;BME280;29032;56.028;92.904;2023-04-21T00:49:44;100559.09;;;2.74;48.22
42887;BME280;29032;56.028;92.904;2023-04-21T00:55:06;100561.25;;;2.79;48.58
42887;BME280;29032;56.028;92.904;2023-04-21T01:00:09;100568.28;;;2.80;48.23
42887;BME280;29032;56.028;92.904;2023-04-21T01:05:12;100563.78;;;2.86;48.73
42887;BME280;29032;56.028;92.904;2023-04-21T01:10:15;100563.47;;;2.84;49.08
42887;BME280;29032;56.028;92.904;2023-04-21T01:15:17;100561.63;;;2.81;49.13
42887;BME280;29032;56.028;92.904;2023-04-21T01:20:19;100553.03;;;2.92;48.70
42887;BME280;29032;56.028;92.904;2023-04-21T01:25:23;100556.97;;;3.03;48.92
42887;BME280;29032;56.028;92.904;2023-04-21T01:30:25;100553.09;;;3.13;48.66
42887;BME280;29032;56.028;92.904;2023-04-21T01:35:27;100550.38;;;3.13;47.88
42887;BME280;29032;56.028;92.904;2023-04-21T01:40:31;100543.91;;;3.07;48.30
42887;BME280;29032;56.028;92.904;2023-04-21T01:45:33;100542.69;;;3.08;48.49
42887;BME280;29032;56.028;92.904;2023-04-21T01:50:35;100548.16;;;3.08;48.38
42887;BME280;29032;56.028;92.904;2023-04-21T01:55:38;100552.56;;;3.19;48.43
42887;BME280;29032;56.028;92.904;2023-04-21T02:00:43;100558.91;;;3.16;48.20
42887;BME280;29032;56.028;92.904;2023-04-21T02:05:45;100553.03;;;3.04;49.27
42887;BME280;29032;56.028;92.904;2023-04-21T02:10:49;100553.25;;;2.97;49.58
42887;BME280;29032;56.028;92.904;2023-04-21T02:15:51;100542.50;;;3.03;49.92
42887;BME280;29032;56.028;92.904;2023-04-21T02:20:53;100548.63;;;3.07;50.10
42887;BME280;29032;56.028;92.904;2023-04-21T02:25:57;100544.00;;;3.17;49.54
42887;BME280;29032;56.028;92.904;2023-04-21T02:30:59;100554.56;;;3.40;49.80
42887;BME280;29032;56.028;92.904;2023-04-21T02:36:01;100552.63;;;3.62;48.58
42887;BME280;29032;56.028;92.904;2023-04-21T02:41:05;100553.91;;;3.92;49.04
42887;BME280;29032;56.028;92.904;2023-04-21T02:46:08;100555.19;;;4.22;48.34
42887;BME280;29032;56.028;92.904;2023-04-21T02:51:11;100550.66;;;4.38;47.24
42887;BME280;29032;56.028;92.904;2023-04-21T02:56:15;100547.91;;;4.38;47.20
42887;BME280;29032;56.028;92.904;2023-04-21T03:01:17;100547.88;;;4.29;47.36
42887;BME280;29032;56.028;92.904;2023-04-21T03:06:19;100543.75;;;4.33;47.37
42887;BME280;29032;56.028;92.904;2023-04-21T03:11:22;100545.72;;;4.23;47.06
42887;BME280;29032;56.028;92.904;2023-04-21T03:16:24;100554.22;;;4.16;47.04
42887;BME280;29032;56.028;92.904;2023-04-21T03:21:26;100557.22;;;4.09;46.71
42887;BME280;29032;56.028;92.904;2023-04-21T03:26:29;100561.19;;;4.08;47.50
42887;BME280;29032;56.028;92.904;2023-04-21T03:31:32;100552.81;;;4.12;46.69
42887;BME280;29032;56.028;92.904;2023-04-21T03:36:34;100550.06;;;4.12;46.79
42887;BME280;29032;56.028;92.904;2023-04-21T03:41:39;100552.34;;;4.13;46.97
42887;BME280;29032;56.028;92.904;2023-04-21T03:46:41;100553.25;;;4.10;47.32
42887;BME280;29032;56.028;92.904;2023-04-21T03:51:43;100551.28;;;4.11;46.59
42887;BME280;29032;56.028;92.904;2023-04-21T03:56:46;100554.56;;;4.28;46.35
42887;BME280;29032;56.028;92.904;2023-04-21T04:01:48;100554.91;;;4.30;46.28
42887;BME280;29032;56.028;92.904;2023-04-21T04:06:50;100555.91;;;4.45;46.88
42887;BME280;29032;56.028;92.904;2023-04-21T04:11:54;100553.25;;;4.72;45.99
42887;BME280;29032;56.028;92.904;2023-04-21T04:16:57;100546.84;;;4.85;46.15
42887;BME280;29032;56.028;92.904;2023-04-21T04:22:00;100558.41;;;5.01;45.34
42887;BME280;29032;56.028;92.904;2023-04-21T04:27:03;100542.72;;;5.20;44.73
42887;BME280;29032;56.028;92.904;2023-04-21T04:32:05;100540.84;;;5.26;44.14
42887;BME280;29032;56.028;92.904;2023-04-21T04:37:07;100536.31;;;5.42;44.70
42887;BME280;29032;56.028;92.904;2023-04-21T04:42:11;100542.09;;;5.53;43.58
42887;BME280;29032;56.028;92.904;2023-04-21T04:47:13;100534.63;;;5.35;44.13
42887;BME280;29032;56.028;92.904;2023-04-21T04:52:15;100538.44;;;5.28;44.86
42887;BME280;29032;56.028;92.904;2023-04-21T04:57:18;100538.44;;;5.47;44.04
42887;BME280;29032;56.028;92.904;2023-04-21T05:07:40;100522.38;;;5.54;42.80
42887;BME280;29032;56.028;92.904;2023-04-21T05:12:44;100516.41;;;5.56;42.98
42887;BME280;29032;56.028;92.904;2023-04-21T05:17:46;100521.16;;;5.65;43.33
42887;BME280;29032;56.028;92.904;2023-04-21T05:22:48;100513.31;;;5.81;42.69
42887;BME280;29032;56.028;92.904;2023-04-21T05:27:52;100508.97;;;6.08;42.17
42887;BME280;29032;56.028;92.904;2023-04-21T05:32:54;100512.59;;;6.23;41.43
42887;BME280;29032;56.028;92.904;2023-04-21T05:37:56;100507.25;;;6.62;42.13
42887;BME280;29032;56.028;92.904;2023-04-21T05:43:17;100502.56;;;6.77;41.00
42887;BME280;29032;56.028;92.904;2023-04-21T05:48:37;100494.09;;;6.57;41.71
42887;BME280;29032;56.028;92.904;2023-04-21T05:53:58;100495.91;;;6.60;41.61
42887;BME280;29032;56.028;92.904;2023-04-21T05:59:02;100491.13;;;6.93;40.33
42887;BME280;29032;56.028;92.904;2023-04-21T06:04:22;100482.94;;;7.23;39.78
42887;BME280;29032;56.028;92.904;2023-04-21T06:15:23;100483.16;;;7.34;38.77
42887;BME280;29032;56.028;92.904;2023-04-21T06:20:25;100473.50;;;7.15;39.82
42887;BME280;29032;56.028;92.904;2023-04-21T06:25:27;100467.09;;;7.09;38.96
42887;BME280;29032;56.028;92.904;2023-04-21T06:35:51;100465.44;;;7.26;38.99
42887;BME280;29032;56.028;92.904;2023-04-21T06:46:15;100459.56;;;7.33;40.56
42887;BME280;29032;56.028;92.904;2023-04-21T06:51:35;100459.22;;;7.55;39.51
42887;BME280;29032;56.028;92.904;2023-04-21T06:56:37;100440.97;;;7.19;39.80
42887;BME280;29032;56.028;92.904;2023-04-21T07:01:59;100453.97;;;7.04;40.67
42887;BME280;29032;56.028;92.904;2023-04-21T07:07:01;100446.09;;;6.87;40.47
42887;BME280;29032;56.028;92.904;2023-04-21T07:17:25;100437.56;;;7.00;40.19
42887;BME280;29032;56.028;92.904;2023-04-21T07:22:27;100447.50;;;7.07;40.84
42887;BME280;29032;56.028;92.904;2023-04-21T07:27:29;100442.63;;;7.40;39.26
42887;BME280;29032;56.028;92.904;2023-04-21T07:38:11;100442.47;;;7.88;38.92
42887;BME280;29032;56.028;92.904;2023-04-21T07:43:13;100431.75;;;8.11;38.59
42887;BME280;29032;56.028;92.904;2023-04-21T07:48:33;100427.63;;;8.21;38.10
42887;BME280;29032;56.028;92.904;2023-04-21T07:53:37;100430.66;;;8.23;38.40
42887;BME280;29032;56.028;92.904;2023-04-21T07:58:39;100425.25;;;8.14;37.55
42887;BME280;29032;56.028;92.904;2023-04-21T08:03:41;100421.78;;;7.84;37.08
42887;BME280;29032;56.028;92.904;2023-04-21T08:14:05;100415.13;;;8.25;36.80
42887;BME280;29032;56.028;92.904;2023-04-21T08:19:07;100426.66;;;8.59;36.90
42887;BME280;29032;56.028;92.904;2023-04-21T08:24:29;100401.41;;;8.72;35.85
42887;BME280;29032;56.028;92.904;2023-04-21T08:29:31;100416.16;;;8.83;35.17
42887;BME280;29032;56.028;92.904;2023-04-21T08:34:33;100412.69;;;8.68;35.48
42887;BME280;29032;56.028;92.904;2023-04-21T08:39:37;100412.78;;;8.94;36.09
42887;BME280;29032;56.028;92.904;2023-04-21T08:44:39;100406.66;;;9.10;36.43
42887;BME280;29032;56.028;92.904;2023-04-21T08:49:42;100403.16;;;9.36;33.93
42887;BME280;29032;56.028;92.904;2023-04-21T08:54:45;100404.41;;;9.35;34.30
42887;BME280;29032;56.028;92.904;2023-04-21T08:59:47;100408.75;;;9.21;34.98
42887;BME280;29032;56.028;92.904;2023-04-21T09:10:11;100403.81;;;9.51;34.12
42887;BME280;29032;56.028;92.904;2023-04-21T09:15:37;100401.09;;;9.31;34.56
42887;BME280;29032;56.028;92.904;2023-04-21T09:21:04;100400.00;;;9.49;34.65
42887;BME280;29032;56.028;92.904;2023-04-21T09:26:08;100394.59;;;9.97;34.20
42887;BME280;29032;56.028;92.904;2023-04-21T09:31:14;100407.78;;;10.45;32.84
42887;BME280;29032;56.028;92.904;2023-04-21T09:36:19;100396.19;;;10.52;33.63
42887;BME280;29032;56.028;92.904;2023-04-21T09:41:24;100402.47;;;10.47;33.12
42887;BME280;29032;56.028;92.904;2023-04-21T09:51:48;100418.88;;;9.76;33.42
42887;BME280;29032;56.028;92.904;2023-04-21T09:56:53;100421.09;;;9.40;34.58
42887;BME280;29032;56.028;92.904;2023-04-21T10:02:14;100426.53;;;9.09;35.52
42887;BME280;29032;56.028;92.904;2023-04-21T10:07:18;100467.91;;;8.42;40.80
42887;BME280;29032;56.028;92.904;2023-04-21T10:12:22;100484.38;;;8.31;43.32
42887;BME280;29032;56.028;92.904;2023-04-21T10:17:25;100476.72;;;8.26;42.70
42887;BME280;29032;56.028;92.904;2023-04-21T10:22:29;100477.31;;;8.00;44.22
42887;BME280;29032;56.028;92.904;2023-04-21T10:27:34;100491.63;;;7.84;45.19
42887;BME280;29032;56.028;92.904;2023-04-21T10:33:13;100492.00;;;7.77;45.13
42887;BME280;29032;56.028;92.904;2023-04-21T10:38:33;100496.06;;;7.52;44.48
42887;BME280;29032;56.028;92.904;2023-04-21T10:43:45;100481.03;;;7.29;45.89
42887;BME280;29032;56.028;92.904;2023-04-21T10:54:13;100472.75;;;7.29;46.66
42887;BME280;29032;56.028;92.904;2023-04-21T10:59:17;100473.66;;;7.35;46.61
42887;BME280;29032;56.028;92.904;2023-04-21T11:04:20;100483.31;;;7.31;45.76
42887;BME280;29032;56.028;92.904;2023-04-21T11:09:22;100487.47;;;7.11;46.89
42887;BME280;29032;56.028;92.904;2023-04-21T11:14:26;100483.09;;;7.05;46.37
42887;BME280;29032;56.028;92.904;2023-04-21T11:19:28;100463.28;;;7.06;45.32
42887;BME280;29032;56.028;92.904;2023-04-21T11:24:32;100464.28;;;6.94;46.58
42887;BME280;29032;56.028;92.904;2023-04-21T11:29:36;100476.09;;;6.94;45.69
42887;BME280;29032;56.028;92.904;2023-04-21T11:34:38;100475.81;;;6.92;46.45
42887;BME280;29032;56.028;92.904;2023-04-21T11:39:41;100474.75;;;6.90;45.87
42887;BME280;29032;56.028;92.904;2023-04-21T11:44:44;100479.19;;;6.87;45.93
42887;BME280;29032;56.028;92.904;2023-04-21T11:49:47;100488.31;;;6.79;45.85
42887;BME280;29032;56.028;92.904;2023-04-21T11:54:57;100488.59;;;6.81;45.66
42887;BME280;29032;56.028;92.904;2023-04-21T12:00:03;100484.72;;;6.87;45.21
42887;BME280;29032;56.028;92.904;2023-04-21T12:05:08;100490.31;;;6.78;45.46
42887;BME280;29032;56.028;92.904;2023-04-21T12:10:12;100496.22;;;6.62;45.28
42887;BME280;29032;56.028;92.904;2023-04-21T12:15:18;100498.09;;;6.56;46.32
42887;BME280;29032;56.028;92.904;2023-04-21T12:20:21;100490.44;;;6.51;45.67
42887;BME280;29032;56.028;92.904;2023-04-21T12:25:25;100496.72;;;6.51;46.00
42887;BME280;29032;56.028;92.904;2023-04-21T12:30:28;100492.91;;;6.49;46.09
42887;BME280;29032;56.028;92.904;2023-04-21T12:35:30;100495.66;;;6.49;45.70
42887;BME280;29032;56.028;92.904;2023-04-21T12:40:32;100496.28;;;6.43;46.39
42887;BME280;29032;56.028;92.904;2023-04-21T12:45:36;100504.69;;;6.49;46.28
42887;BME280;29032;56.028;92.904;2023-04-21T12:50:38;100510.03;;;6.53;46.41
42887;BME280;29032;56.028;92.904;2023-04-21T12:55:40;100516.56;;;6.64;45.93
42887;BME280;29032;56.028;92.904;2023-04-21T13:00:44;100520.03;;;6.74;45.64
42887;BME280;29032;56.028;92.904;2023-04-21T13:05:46;100510.31;;;6.64;45.59
42887;BME280;29032;56.028;92.904;2023-04-21T13:10:48;100534.56;;;6.51;45.87
42887;BME280;29032;56.028;92.904;2023-04-21T13:15:51;100533.66;;;6.44;46.59
42887;BME280;29032;56.028;92.904;2023-04-21T13:20:53;100532.44;;;6.46;46.09
42887;BME280;29032;56.028;92.904;2023-04-21T13:25:55;100537.66;;;6.43;46.33
42887;BME280;29032;56.028;92.904;2023-04-21T13:30:59;100537.03;;;6.39;46.75
42887;BME280;29032;56.028;92.904;2023-04-21T13:36:01;100542.59;;;6.30;46.55
42887;BME280;29032;56.028;92.904;2023-04-21T13:41:03;100547.69;;;6.23;47.12
42887;BME280;29032;56.028;92.904;2023-04-21T13:46:07;100541.72;;;6.15;47.30
42887;BME280;29032;56.028;92.904;2023-04-21T13:51:09;100542.66;;;6.12;47.15
42887;BME280;29032;56.028;92.904;2023-04-21T13:56:11;100546.91;;;6.22;47.08
42887;BME280;29032;56.028;92.904;2023-04-21T14:01:15;100547.03;;;6.37;47.56
42887;BME280;29032;56.028;92.904;2023-04-21T14:06:17;100550.06;;;6.39;47.04
42887;BME280;29032;56.028;92.904;2023-04-21T14:11:19;100545.66;;;6.32;46.86
42887;BME280;29032;56.028;92.904;2023-04-21T14:16:23;100554.25;;;6.25;47.40
42887;BME280;29032;56.028;92.904;2023-04-21T14:21:25;100545.84;;;6.20;47.60
42887;BME280;29032;56.028;92.904;2023-04-21T14:26:27;100553.66;;;6.21;47.49
42887;BME280;29032;56.028;92.904;2023-04-21T14:31:31;100554.88;;;6.20;47.54
42887;BME280;29032;56.028;92.904;2023-04-21T14:36:33;100552.00;;;6.14;47.20
42887;BME280;29032;56.028;92.904;2023-04-21T14:41:35;100557.50;;;6.14;47.23
42887;BME280;29032;56.028;92.904;2023-04-21T14:46:38;100554.88;;;6.11;47.38
42887;BME280;29032;56.028;92.904;2023-04-21T14:51:40;100556.44;;;6.03;47.20
42887;BME280;29032;56.028;92.904;2023-04-21T14:56:42;100570.25;;;5.94;47.31
42887;BME280;29032;56.028;92.904;2023-04-21T15:01:46;100565.50;;;5.85;47.74
42887;BME280;29032;56.028;92.904;2023-04-21T15:06:48;100554.66;;;5.72;48.33
42887;BME280;29032;56.028;92.904;2023-04-21T15:11:50;100566.88;;;5.62;48.67
42887;BME280;29032;56.028;92.904;2023-04-21T15:16:53;100560.16;;;5.54;49.33
42887;BME280;29032;56.028;92.904;2023-04-21T15:21:56;100557.41;;;5.45;48.79
42887;BME280;29032;56.028;92.904;2023-04-21T15:32:38;100557.97;;;5.12;49.60
42887;BME280;29032;56.028;92.904;2023-04-21T15:37:40;100556.44;;;5.11;49.50
42887;BME280;29032;56.028;92.904;2023-04-21T15:42:42;100566.38;;;5.18;49.63
42887;BME280;29032;56.028;92.904;2023-04-21T15:47:45;100560.56;;;5.16;49.57
42887;BME280;29032;56.028;92.904;2023-04-21T15:52:47;100571.41;;;5.10;49.63
42887;BME280;29032;56.028;92.904;2023-04-21T15:57:49;100579.97;;;5.12;49.49
42887;BME280;29032;56.028;92.904;2023-04-21T16:08:13;100575.38;;;5.09;49.45
42887;BME280;29032;56.028;92.904;2023-04-21T16:13:16;100576.63;;;5.08;49.32
42887;BME280;29032;56.028;92.904;2023-04-21T16:18:20;100580.72;;;5.13;49.78
42887;BME280;29032;56.028;92.904;2023-04-21T16:23:22;100579.22;;;5.12;49.12
42887;BME280;29032;56.028;92.904;2023-04-21T16:28:24;100571.06;;;4.99;49.37
42887;BME280;29032;56.028;92.904;2023-04-21T16:33:27;100576.84;;;4.92;49.49
42887;BME280;29032;56.028;92.904;2023-04-21T16:38:29;100574.06;;;4.83;49.72
42887;BME280;29032;56.028;92.904;2023-04-21T16:43:32;100574.97;;;4.79;49.93
42887;BME280;29032;56.028;92.904;2023-04-21T16:48:35;100574.22;;;4.79;49.58
42887;BME280;29032;56.028;92.904;2023-04-21T16:53:37;100582.28;;;4.73;49.57
42887;BME280;29032;56.028;92.904;2023-04-21T16:58:39;100591.00;;;4.72;49.38
42887;BME280;29032;56.028;92.904;2023-04-21T17:03:43;100585.34;;;4.75;49.73
42887;BME280;29032;56.028;92.904;2023-04-21T17:09:03;100581.41;;;4.86;48.86
42887;BME280;29032;56.028;92.904;2023-04-21T17:14:05;100581.97;;;4.71;49.61
42887;BME280;29032;56.028;92.904;2023-04-21T17:19:09;100576.16;;;4.69;49.50
42887;BME280;29032;56.028;92.904;2023-04-21T17:24:11;100579.91;;;4.54;49.76
42887;BME280;29032;56.028;92.904;2023-04-21T17:29:13;100582.47;;;4.48;50.25
42887;BME280;29032;56.028;92.904;2023-04-21T17:34:32;100581.22;;;4.40;50.31
42887;BME280;29032;56.028;92.904;2023-04-21T17:39:34;100579.00;;;4.26;50.64
42887;BME280;29032;56.028;92.904;2023-04-21T17:44:54;100585.72;;;4.24;50.85
42887;BME280;29032;56.028;92.904;2023-04-21T17:49:58;100581.31;;;4.05;51.38
42887;BME280;29032;56.028;92.904;2023-04-21T17:55:00;100586.34;;;4.07;50.94
42887;BME280;29032;56.028;92.904;2023-04-21T18:00:03;100575.25;;;4.10;50.71
42887;BME280;29032;56.028;92.904;2023-04-21T18:05:08;100587.94;;;4.17;50.64
42887;BME280;29032;56.028;92.904;2023-04-21T18:10:11;100577.69;;;4.08;50.52
42887;BME280;29032;56.028;92.904;2023-04-21T18:15:13;100582.22;;;4.02;50.24
42887;BME280;29032;56.028;92.904;2023-04-21T18:20:17;100576.25;;;4.04;50.89
42887;BME280;29032;56.028;92.904;2023-04-21T18:25:19;100578.97;;;3.94;50.66
42887;BME280;29032;56.028;92.904;2023-04-21T18:30:21;100591.06;;;3.84;51.44
42887;BME280;29032;56.028;92.904;2023-04-21T18:35:24;100585.06;;;3.77;51.39
42887;BME280;29032;56.028;92.904;2023-04-21T18:40:26;100580.47;;;3.74;51.82
42887;BME280;29032;56.028;92.904;2023-04-21T18:45:29;100578.41;;;3.65;52.18
42887;BME280;29032;56.028;92.904;2023-04-21T18:50:32;100576.78;;;3.67;51.82
42887;BME280;29032;56.028;92.904;2023-04-21T18:55:34;100578.28;;;3.68;51.50
42887;BME280;29032;56.028;92.904;2023-04-21T19:00:37;100580.97;;;3.59;51.96
42887;BME280;29032;56.028;92.904;2023-04-21T19:05:40;100584.28;;;3.54;51.99
42887;BME280;29032;56.028;92.904;2023-04-21T19:10:42;100586.06;;;3.48;52.25
42887;BME280;29032;56.028;92.904;2023-04-21T19:15:45;100590.66;;;3.51;51.99
42887;BME280;29032;56.028;92.904;2023-04-21T19:20:48;100588.56;;;3.55;51.70
42887;BME280;29032;56.028;92.904;2023-04-21T19:25:50;100581.47;;;3.45;52.14
42887;BME280;29032;56.028;92.904;2023-04-21T19:30:52;100586.94;;;3.45;51.87
42887;BME280;29032;56.028;92.904;2023-04-21T19:35:56;100599.44;;;3.46;52.24
42887;BME280;29032;56.028;92.904;2023-04-21T19:40:59;100596.16;;;3.51;51.47
42887;BME280;29032;56.028;92.904;2023-04-21T19:51:22;100593.59;;;3.57;52.02
42887;BME280;29032;56.028;92.904;2023-04-21T19:56:24;100594.34;;;3.57;51.75
42887;BME280;29032;56.028;92.904;2023-04-21T20:06:48;100589.03;;;3.76;51.30
42887;BME280;29032;56.028;92.904;2023-04-21T20:11:50;100583.75;;;3.81;50.75
42887;BME280;29032;56.028;92.904;2023-04-21T20:16:52;100581.44;;;3.80;50.61
42887;BME280;29032;56.028;92.904;2023-04-21T20:21:56;100585.72;;;3.81;50.70
42887;BME280;29032;56.028;92.904;2023-04-21T20:26:58;100574.09;;;3.77;50.20
42887;BME280;29032;56.028;92.904;2023-04-21T20:32:00;100575.88;;;3.71;50.39
42887;BME280;29032;56.028;92.904;2023-04-21T20:37:21;100581.56;;;3.76;50.19
42887;BME280;29032;56.028;92.904;2023-04-21T20:42:23;100569.53;;;3.61;50.79
42887;BME280;29032;56.028;92.904;2023-04-21T20:47:25;100573.38;;;3.63;50.21
42887;BME280;29032;56.028;92.904;2023-04-21T20:52:29;100572.41;;;3.57;50.85
42887;BME280;29032;56.028;92.904;2023-04-21T20:57:31;100579.25;;;3.53;50.55
42887;BME280;29032;56.028;92.904;2023-04-21T21:02:33;100576.28;;;3.47;50.99
42887;BME280;29032;56.028;92.904;2023-04-21T21:07:37;100578.38;;;3.43;50.67
42887;BME280;29032;56.028;92.904;2023-04-21T21:12:57;100579.28;;;3.40;50.28
42887;BME280;29032;56.028;92.904;2023-04-21T21:17:59;100578.44;;;3.30;50.80
42887;BME280;29032;56.028;92.904;2023-04-21T21:23:03;100580.38;;;3.30;51.00
42887;BME280;29032;56.028;92.904;2023-04-21T21:28:05;100566.91;;;3.23;51.02
42887;BME280;29032;56.028;92.904;2023-04-21T21:33:07;100581.72;;;3.25;51.08
42887;BME280;29032;56.028;92.904;2023-04-21T21:38:10;100587.09;;;3.29;51.10
42887;BME280;29032;56.028;92.904;2023-04-21T21:43:12;100589.81;;;3.29;50.42
42887;BME280;29032;56.028;92.904;2023-04-21T21:48:14;100567.59;;;3.14;51.00
42887;BME280;29032;56.028;92.904;2023-04-21T21:53:36;100580.88;;;3.03;51.19
42887;BME280;29032;56.028;92.904;2023-04-21T21:58:38;100579.78;;;3.00;51.25
42887;BME280;29032;56.028;92.904;2023-04-21T22:03:40;100579.38;;;2.89;51.38
42887;BME280;29032;56.028;92.904;2023-04-21T22:08:44;100586.38;;;2.90;51.26
42887;BME280;29032;56.028;92.904;2023-04-21T22:13:46;100592.94;;;2.80;51.55
42887;BME280;29032;56.028;92.904;2023-04-21T22:18:48;100590.66;;;2.78;51.83
42887;BME280;29032;56.028;92.904;2023-04-21T22:24:10;100589.03;;;2.81;52.03
42887;BME280;29032;56.028;92.904;2023-04-21T22:29:12;100586.69;;;2.79;51.16
42887;BME280;29032;56.028;92.904;2023-04-21T22:34:14;100588.69;;;2.79;51.17
42887;BME280;29032;56.028;92.904;2023-04-21T22:39:17;100596.91;;;2.79;51.72
42887;BME280;29032;56.028;92.904;2023-04-21T22:44:38;100595.16;;;2.85;51.00
42887;BME280;29032;56.028;92.904;2023-04-21T22:55:02;100613.34;;;2.79;51.45
42887;BME280;29032;56.028;92.904;2023-04-21T23:00:05;100612.50;;;2.82;50.90
42887;BME280;29032;56.028;92.904;2023-04-21T23:05:08;100624.31;;;3.04;50.30
42887;BME280;29032;56.028;92.904;2023-04-21T23:10:12;100632.41;;;3.21;50.10
42887;BME280;29032;56.028;92.904;2023-04-21T23:15:14;100636.91;;;3.27;49.41
42887;BME280;29032;56.028;92.904;2023-04-21T23:20:16;100629.22;;;3.22;49.28
42887;BME280;29032;56.028;92.904;2023-04-21T23:25:20;100614.44;;;3.20;50.18
42887;BME280;29032;56.028;92.904;2023-04-21T23:30:22;100621.34;;;3.11;50.23
42887;BME280;29032;56.028;92.904;2023-04-21T23:35:24;100636.38;;;3.20;50.04
42887;BME280;29032;56.028;92.904;2023-04-21T23:40:27;100628.13;;;3.20;50.25
42887;BME280;29032;56.028;92.904;2023-04-21T23:45:29;100630.78;;;3.10;50.11
42887;BME280;29032;56.028;92.904;2023-04-21T23:50:31;100633.00;;;3.03;50.66
42887;BME280;29032;56.028;92.904;2023-04-21T23:55:35;100631.13;;;3.00;50.50
